Terrell, TX

12:32 AM CST on March 06, 2015 (GMT -0600)
Terrell Municipal | Change Station
CLOSE
Current Station
Airport
Location: Terrell,
Elevation: 476 ft
Nearby Weather Stations

Elev 476 ft 32.71 °N, 96.27 °W | Updated 39 minutes ago

Clear
Clear
30 °F
Feels Like 30 °F
N
0
Wind Variable Wind from North

Today
High -- | Low -- °F
--% Chance of Precip.
Yesterday
High -- | Low -- °F
Precip. -- in
6:47 AM 6:26 PM
Full, 100% visible
Pressure 30.61 in
Visibility 10.0 miles
Clouds Clear
Dew Point 22 °F
Humidity 72%
Rainfall 0.00 in
Snow Depth Not available.
UV 0 out of 12
Pollen 3.10 out of 12
Air Quality Not available.
Flu Activity Not available.
METAR KTRL 060553Z AUTO 00000KT 10SM CLR M01/M06 A3060 RMK AO2 SLP365 T10111056 10033 21017 400441033 58001

More Conditions Fewer Conditions

Pressure 30.61 in
Visibility 10.0 miles
Clouds Clear
Dew Point 22 °F
Humidity 72%
Rainfall 0.00 in
Snow Depth Not available.
UV 0 out of 12
Pollen 3.10 out of 12
Air Quality Not available.
Flu Activity Not available.
METAR KTRL 060553Z AUTO 00000KT 10SM CLR M01/M06 A3060 RMK AO2 SLP365 T10111056 10033 21017 400441033 58001

More Conditions Fewer Conditions

10-Day Weather Forecast

Almanac

Astronomy

Mar. 06, 2015 Rise Set
Actual Time
Civil Twilight
Nautical Twilight
Astronomical Twilight
Moon
Length of Visible Light
Length of Day
Tomorrow will be .
, % of the Moon is Illuminated

Today's Extremes

State Highs State Lows

Community

WunderPhotos

Upload Photos

1,803,195 photos uploaded!

WunderBlogs® & News

Nearby

Air Quality

  Air Quality AQ Index Pollutant
Not available.

Snow Depth

Station Depth Elevation

Earthquake Activity

City Distance Mag. Time & Date
Minimum magnitude displayed is 2.5.

Coastal Water Temperatures

Place Temperature

Nearby Weather Stations